Terminal Aerodrome Forecast
Issued by NWS Binghamton, NY

Home | Current Version | Previous Version | Text Only | Print | Product List | Glossary On
Versions: 1 2 3 4 5 6 7 8 9 10 11 12 13 14
000
FTUS41 KBGM 241133
TAFBGM
TAF
KBGM 241133Z 2412/2512 17015G26KT P6SM OVC025
      TEMPO 2412/2414 5SM -SHRA OVC015
     FM241400 21009KT P6SM OVC035
     FM241800 20011KT P6SM SCT070
     FM250100 21006KT P6SM BKN080=

USA.gov is the U.S. government's official web portal to all federal, state and local government web resources and services.